sensor_id;sensor_type;location;lat;lon;timestamp;P1;durP1;ratioP1;P2;durP2;ratioP2
25249;SDS011;13201;51.148;13.738;2023-03-13T00:00:33;9.68;;;2.03;;
25249;SDS011;13201;51.148;13.738;2023-03-13T00:03:00;7.05;;;2.22;;
25249;SDS011;13201;51.148;13.738;2023-03-13T00:05:25;4.93;;;1.88;;
25249;SDS011;13201;51.148;13.738;2023-03-13T00:07:51;6.20;;;2.47;;
25249;SDS011;13201;51.148;13.738;2023-03-13T00:10:16;8.57;;;2.50;;
25249;SDS011;13201;51.148;13.738;2023-03-13T00:12:42;4.68;;;2.33;;
25249;SDS011;13201;51.148;13.738;2023-03-13T00:15:08;7.38;;;2.28;;
25249;SDS011;13201;51.148;13.738;2023-03-13T00:17:34;9.68;;;2.63;;
25249;SDS011;13201;51.148;13.738;2023-03-13T00:20:00;7.32;;;2.00;;
25249;SDS011;13201;51.148;13.738;2023-03-13T00:22:25;9.02;;;2.20;;
25249;SDS011;13201;51.148;13.738;2023-03-13T00:24:51;6.97;;;2.00;;
25249;SDS011;13201;51.148;13.738;2023-03-13T00:27:17;7.25;;;2.03;;
25249;SDS011;13201;51.148;13.738;2023-03-13T00:29:42;5.93;;;2.03;;
25249;SDS011;13201;51.148;13.738;2023-03-13T00:32:08;10.93;;;2.70;;
25249;SDS011;13201;51.148;13.738;2023-03-13T00:34:34;12.30;;;2.72;;
25249;SDS011;13201;51.148;13.738;2023-03-13T00:36:59;8.40;;;1.98;;
25249;SDS011;13201;51.148;13.738;2023-03-13T00:39:25;11.07;;;2.72;;
25249;SDS011;13201;51.148;13.738;2023-03-13T00:41:51;5.28;;;1.77;;
25249;SDS011;13201;51.148;13.738;2023-03-13T00:44:16;9.02;;;2.45;;
25249;SDS011;13201;51.148;13.738;2023-03-13T00:46:42;6.97;;;1.95;;
25249;SDS011;13201;51.148;13.738;2023-03-13T00:49:08;10.20;;;2.13;;
25249;SDS011;13201;51.148;13.738;2023-03-13T00:51:33;9.52;;;2.20;;
25249;SDS011;13201;51.148;13.738;2023-03-13T00:53:59;9.98;;;2.30;;
25249;SDS011;13201;51.148;13.738;2023-03-13T00:56:25;9.98;;;2.13;;
25249;SDS011;13201;51.148;13.738;2023-03-13T00:58:51;8.80;;;1.67;;
25249;SDS011;13201;51.148;13.738;2023-03-13T01:01:22;12.55;;;2.35;;
25249;SDS011;13201;51.148;13.738;2023-03-13T01:03:50;9.13;;;1.98;;
25249;SDS011;13201;51.148;13.738;2023-03-13T01:30:54;8.13;;;2.00;;
25249;SDS011;13201;51.148;13.738;2023-03-13T01:33:20;12.88;;;2.10;;
25249;SDS011;13201;51.148;13.738;2023-03-13T01:35:46;6.93;;;2.08;;
25249;SDS011;13201;51.148;13.738;2023-03-13T01:38:11;10.27;;;2.00;;
25249;SDS011;13201;51.148;13.738;2023-03-13T01:40:38;9.32;;;2.25;;
25249;SDS011;13201;51.148;13.738;2023-03-13T01:43:19;6.55;;;2.20;;
25249;SDS011;13201;51.148;13.738;2023-03-13T01:45:48;6.00;;;1.63;;
25249;SDS011;13201;51.148;13.738;2023-03-13T01:51:25;6.93;;;2.22;;
25249;SDS011;13201;51.148;13.738;2023-03-13T01:54:11;8.48;;;1.83;;
25249;SDS011;13201;51.148;13.738;2023-03-13T01:56:46;7.78;;;1.88;;
25249;SDS011;13201;51.148;13.738;2023-03-13T01:59:14;10.15;;;2.20;;
25249;SDS011;13201;51.148;13.738;2023-03-13T02:01:45;8.35;;;2.25;;
25249;SDS011;13201;51.148;13.738;2023-03-13T02:04:12;6.07;;;1.75;;
25249;SDS011;13201;51.148;13.738;2023-03-13T02:06:39;16.88;;;2.58;;
25249;SDS011;13201;51.148;13.738;2023-03-13T02:09:09;10.52;;;1.80;;
25249;SDS011;13201;51.148;13.738;2023-03-13T02:11:44;10.48;;;2.47;;
25249;SDS011;13201;51.148;13.738;2023-03-13T02:14:22;7.63;;;1.50;;
25249;SDS011;13201;51.148;13.738;2023-03-13T02:16:51;7.78;;;1.83;;
25249;SDS011;13201;51.148;13.738;2023-03-13T02:19:27;17.10;;;2.23;;
25249;SDS011;13201;51.148;13.738;2023-03-13T02:24:31;8.05;;;1.90;;
25249;SDS011;13201;51.148;13.738;2023-03-13T02:26:59;7.93;;;1.98;;
25249;SDS011;13201;51.148;13.738;2023-03-13T02:29:24;17.33;;;2.00;;
25249;SDS011;13201;51.148;13.738;2023-03-13T02:31:50;6.85;;;1.88;;
25249;SDS011;13201;51.148;13.738;2023-03-13T02:34:18;8.13;;;1.83;;
25249;SDS011;13201;51.148;13.738;2023-03-13T02:36:46;12.93;;;1.95;;
25249;SDS011;13201;51.148;13.738;2023-03-13T02:41:41;7.28;;;1.52;;
25249;SDS011;13201;51.148;13.738;2023-03-13T02:44:07;7.32;;;2.03;;
25249;SDS011;13201;51.148;13.738;2023-03-13T02:46:42;13.52;;;2.05;;
25249;SDS011;13201;51.148;13.738;2023-03-13T02:49:23;9.38;;;1.40;;
25249;SDS011;13201;51.148;13.738;2023-03-13T02:51:50;9.32;;;1.90;;
25249;SDS011;13201;51.148;13.738;2023-03-13T02:54:20;8.05;;;1.80;;
25249;SDS011;13201;51.148;13.738;2023-03-13T02:56:50;10.15;;;1.90;;
25249;SDS011;13201;51.148;13.738;2023-03-13T02:59:19;12.85;;;1.80;;
25249;SDS011;13201;51.148;13.738;2023-03-13T03:01:45;9.07;;;1.80;;
25249;SDS011;13201;51.148;13.738;2023-03-13T03:04:11;9.98;;;2.05;;
25249;SDS011;13201;51.148;13.738;2023-03-13T03:06:37;8.35;;;2.15;;
25249;SDS011;13201;51.148;13.738;2023-03-13T03:09:03;5.93;;;1.70;;
25249;SDS011;13201;51.148;13.738;2023-03-13T03:11:28;12.47;;;2.13;;
25249;SDS011;13201;51.148;13.738;2023-03-13T03:13:54;10.02;;;2.25;;
25249;SDS011;13201;51.148;13.738;2023-03-13T03:16:20;9.73;;;1.60;;
25249;SDS011;13201;51.148;13.738;2023-03-13T03:18:45;8.10;;;1.65;;
25249;SDS011;13201;51.148;13.738;2023-03-13T03:21:11;13.32;;;2.20;;
25249;SDS011;13201;51.148;13.738;2023-03-13T03:23:37;6.82;;;2.00;;
25249;SDS011;13201;51.148;13.738;2023-03-13T03:26:03;10.02;;;1.90;;
25249;SDS011;13201;51.148;13.738;2023-03-13T03:30:55;13.70;;;2.20;;
25249;SDS011;13201;51.148;13.738;2023-03-13T03:33:22;10.05;;;1.65;;
25249;SDS011;13201;51.148;13.738;2023-03-13T03:35:48;11.63;;;1.65;;
25249;SDS011;13201;51.148;13.738;2023-03-13T03:38:14;12.90;;;2.13;;
25249;SDS011;13201;51.148;13.738;2023-03-13T03:40:41;11.05;;;2.40;;
25249;SDS011;13201;51.148;13.738;2023-03-13T03:43:07;12.27;;;1.92;;
25249;SDS011;13201;51.148;13.738;2023-03-13T03:45:33;10.80;;;1.95;;
25249;SDS011;13201;51.148;13.738;2023-03-13T03:47:58;7.25;;;1.80;;
25249;SDS011;13201;51.148;13.738;2023-03-13T03:50:27;9.23;;;1.60;;
25249;SDS011;13201;51.148;13.738;2023-03-13T03:52:53;9.10;;;1.90;;
25249;SDS011;13201;51.148;13.738;2023-03-13T03:55:18;9.38;;;1.77;;
25249;SDS011;13201;51.148;13.738;2023-03-13T03:57:44;10.18;;;2.10;;
25249;SDS011;13201;51.148;13.738;2023-03-13T04:00:10;11.30;;;2.03;;
25249;SDS011;13201;51.148;13.738;2023-03-13T04:02:38;7.93;;;1.55;;
25249;SDS011;13201;51.148;13.738;2023-03-13T04:05:04;9.00;;;1.77;;
25249;SDS011;13201;51.148;13.738;2023-03-13T04:07:30;7.30;;;1.80;;
25249;SDS011;13201;51.148;13.738;2023-03-13T04:09:56;6.15;;;1.58;;
25249;SDS011;13201;51.148;13.738;2023-03-13T04:12:22;7.28;;;1.65;;
25249;SDS011;13201;51.148;13.738;2023-03-13T04:14:47;9.70;;;1.90;;
25249;SDS011;13201;51.148;13.738;2023-03-13T04:17:13;6.57;;;1.80;;
25249;SDS011;13201;51.148;13.738;2023-03-13T04:19:39;7.88;;;1.90;;
25249;SDS011;13201;51.148;13.738;2023-03-13T04:22:04;12.60;;;1.65;;
25249;SDS011;13201;51.148;13.738;2023-03-13T04:24:30;6.28;;;1.80;;
25249;SDS011;13201;51.148;13.738;2023-03-13T04:26:56;8.77;;;1.90;;
25249;SDS011;13201;51.148;13.738;2023-03-13T04:29:22;10.70;;;1.60;;
25249;SDS011;13201;51.148;13.738;2023-03-13T04:31:48;7.68;;;1.60;;
25249;SDS011;13201;51.148;13.738;2023-03-13T04:34:13;6.75;;;2.22;;
25249;SDS011;13201;51.148;13.738;2023-03-13T04:36:39;10.63;;;2.10;;
25249;SDS011;13201;51.148;13.738;2023-03-13T04:39:05;11.18;;;2.70;;
25249;SDS011;13201;51.148;13.738;2023-03-13T04:41:30;8.15;;;2.08;;
25249;SDS011;13201;51.148;13.738;2023-03-13T04:43:56;9.43;;;1.60;;
25249;SDS011;13201;51.148;13.738;2023-03-13T04:46:22;9.55;;;2.42;;
25249;SDS011;13201;51.148;13.738;2023-03-13T04:48:47;6.32;;;1.70;;
25249;SDS011;13201;51.148;13.738;2023-03-13T04:51:13;8.05;;;1.73;;
25249;SDS011;13201;51.148;13.738;2023-03-13T04:53:38;8.77;;;2.13;;
25249;SDS011;13201;51.148;13.738;2023-03-13T04:56:04;8.38;;;1.77;;
25249;SDS011;13201;51.148;13.738;2023-03-13T04:58:30;11.85;;;1.98;;
25249;SDS011;13201;51.148;13.738;2023-03-13T05:00:56;5.65;;;1.60;;
25249;SDS011;13201;51.148;13.738;2023-03-13T05:03:22;7.35;;;1.90;;
25249;SDS011;13201;51.148;13.738;2023-03-13T05:05:48;8.87;;;1.47;;
25249;SDS011;13201;51.148;13.738;2023-03-13T05:08:14;11.07;;;1.70;;
25249;SDS011;13201;51.148;13.738;2023-03-13T05:10:43;7.22;;;1.80;;
25249;SDS011;13201;51.148;13.738;2023-03-13T05:13:08;9.95;;;1.90;;
25249;SDS011;13201;51.148;13.738;2023-03-13T05:15:34;8.63;;;1.40;;
25249;SDS011;13201;51.148;13.738;2023-03-13T05:18:00;10.18;;;1.88;;
25249;SDS011;13201;51.148;13.738;2023-03-13T05:20:25;8.68;;;1.70;;
25249;SDS011;13201;51.148;13.738;2023-03-13T05:22:51;9.45;;;1.67;;
25249;SDS011;13201;51.148;13.738;2023-03-13T05:25:17;13.05;;;1.67;;
25249;SDS011;13201;51.148;13.738;2023-03-13T05:27:42;11.65;;;1.80;;
25249;SDS011;13201;51.148;13.738;2023-03-13T05:30:09;7.00;;;1.40;;
25249;SDS011;13201;51.148;13.738;2023-03-13T05:32:35;7.50;;;2.10;;
25249;SDS011;13201;51.148;13.738;2023-03-13T05:35:01;10.98;;;1.65;;
25249;SDS011;13201;51.148;13.738;2023-03-13T05:37:27;9.52;;;1.30;;
25249;SDS011;13201;51.148;13.738;2023-03-13T05:39:52;7.35;;;2.15;;
25249;SDS011;13201;51.148;13.738;2023-03-13T05:42:18;8.82;;;1.40;;
25249;SDS011;13201;51.148;13.738;2023-03-13T05:44:44;6.63;;;1.35;;
25249;SDS011;13201;51.148;13.738;2023-03-13T05:47:09;10.80;;;1.98;;
25249;SDS011;13201;51.148;13.738;2023-03-13T05:49:35;9.45;;;1.92;;
25249;SDS011;13201;51.148;13.738;2023-03-13T05:52:01;12.00;;;1.80;;
25249;SDS011;13201;51.148;13.738;2023-03-13T05:54:26;10.68;;;1.48;;
25249;SDS011;13201;51.148;13.738;2023-03-13T05:56:52;9.25;;;2.00;;
25249;SDS011;13201;51.148;13.738;2023-03-13T05:59:18;7.53;;;1.50;;
25249;SDS011;13201;51.148;13.738;2023-03-13T06:01:43;9.77;;;2.28;;
25249;SDS011;13201;51.148;13.738;2023-03-13T06:04:09;7.88;;;1.73;;
25249;SDS011;13201;51.148;13.738;2023-03-13T06:06:35;7.95;;;1.77;;
25249;SDS011;13201;51.148;13.738;2023-03-13T06:09:00;9.27;;;1.63;;
25249;SDS011;13201;51.148;13.738;2023-03-13T06:11:26;7.70;;;1.58;;
25249;SDS011;13201;51.148;13.738;2023-03-13T06:13:52;9.90;;;1.90;;
25249;SDS011;13201;51.148;13.738;2023-03-13T06:16:18;7.43;;;1.70;;
25249;SDS011;13201;51.148;13.738;2023-03-13T06:18:44;8.70;;;1.75;;
25249;SDS011;13201;51.148;13.738;2023-03-13T06:21:10;8.45;;;1.60;;
25249;SDS011;13201;51.148;13.738;2023-03-13T06:23:36;8.68;;;1.70;;
25249;SDS011;13201;51.148;13.738;2023-03-13T06:26:02;9.18;;;1.67;;
25249;SDS011;13201;51.148;13.738;2023-03-13T06:28:28;8.10;;;2.03;;
25249;SDS011;13201;51.148;13.738;2023-03-13T06:30:53;6.30;;;1.30;;
25249;SDS011;13201;51.148;13.738;2023-03-13T06:33:19;11.65;;;1.85;;
25249;SDS011;13201;51.148;13.738;2023-03-13T06:35:45;13.10;;;2.10;;
25249;SDS011;13201;51.148;13.738;2023-03-13T06:38:11;5.75;;;1.70;;
25249;SDS011;13201;51.148;13.738;2023-03-13T06:40:37;7.30;;;1.95;;
25249;SDS011;13201;51.148;13.738;2023-03-13T06:43:02;9.23;;;1.98;;
25249;SDS011;13201;51.148;13.738;2023-03-13T06:45:28;5.20;;;1.75;;
25249;SDS011;13201;51.148;13.738;2023-03-13T06:47:54;10.43;;;2.40;;
25249;SDS011;13201;51.148;13.738;2023-03-13T06:50:19;9.65;;;1.63;;
25249;SDS011;13201;51.148;13.738;2023-03-13T06:52:45;10.95;;;1.98;;
25249;SDS011;13201;51.148;13.738;2023-03-13T06:55:12;8.98;;;2.55;;
25249;SDS011;13201;51.148;13.738;2023-03-13T06:57:37;10.70;;;2.33;;
25249;SDS011;13201;51.148;13.738;2023-03-13T07:00:03;7.97;;;2.17;;
25249;SDS011;13201;51.148;13.738;2023-03-13T07:02:35;7.88;;;1.77;;
25249;SDS011;13201;51.148;13.738;2023-03-13T07:05:01;6.28;;;2.35;;
25249;SDS011;13201;51.148;13.738;2023-03-13T07:07:30;8.15;;;2.20;;
25249;SDS011;13201;51.148;13.738;2023-03-13T07:09:57;11.93;;;3.10;;
25249;SDS011;13201;51.148;13.738;2023-03-13T07:12:23;7.22;;;2.10;;
25249;SDS011;13201;51.148;13.738;2023-03-13T07:14:48;6.00;;;2.20;;
25249;SDS011;13201;51.148;13.738;2023-03-13T07:17:14;5.45;;;2.47;;
25249;SDS011;13201;51.148;13.738;2023-03-13T07:19:40;5.60;;;2.47;;
25249;SDS011;13201;51.148;13.738;2023-03-13T07:22:05;10.38;;;2.53;;
25249;SDS011;13201;51.148;13.738;2023-03-13T07:24:31;9.88;;;2.03;;
25249;SDS011;13201;51.148;13.738;2023-03-13T07:26:57;7.28;;;2.10;;
25249;SDS011;13201;51.148;13.738;2023-03-13T07:29:22;6.88;;;2.10;;
25249;SDS011;13201;51.148;13.738;2023-03-13T07:31:48;5.18;;;2.08;;
25249;SDS011;13201;51.148;13.738;2023-03-13T07:34:14;9.40;;;3.17;;
25249;SDS011;13201;51.148;13.738;2023-03-13T07:36:40;9.75;;;2.53;;
25249;SDS011;13201;51.148;13.738;2023-03-13T07:39:06;10.00;;;2.57;;
25249;SDS011;13201;51.148;13.738;2023-03-13T07:41:32;10.70;;;2.40;;
25249;SDS011;13201;51.148;13.738;2023-03-13T07:43:58;6.68;;;2.00;;
25249;SDS011;13201;51.148;13.738;2023-03-13T07:46:23;6.70;;;1.95;;
25249;SDS011;13201;51.148;13.738;2023-03-13T07:48:49;7.07;;;1.65;;
25249;SDS011;13201;51.148;13.738;2023-03-13T07:56:10;4.20;;;1.40;;
25249;SDS011;13201;51.148;13.738;2023-03-13T07:58:37;10.02;;;1.67;;
25249;SDS011;13201;51.148;13.738;2023-03-13T08:01:07;3.13;;;1.23;;
25249;SDS011;13201;51.148;13.738;2023-03-13T08:03:38;7.03;;;1.60;;
25249;SDS011;13201;51.148;13.738;2023-03-13T08:06:05;7.33;;;1.70;;
25249;SDS011;13201;51.148;13.738;2023-03-13T08:08:33;7.65;;;1.40;;
25249;SDS011;13201;51.148;13.738;2023-03-13T08:11:00;7.20;;;1.70;;
25249;SDS011;13201;51.148;13.738;2023-03-13T08:13:30;7.15;;;1.98;;
25249;SDS011;13201;51.148;13.738;2023-03-13T08:18:26;6.68;;;1.67;;
25249;SDS011;13201;51.148;13.738;2023-03-13T08:20:52;7.53;;;1.90;;
25249;SDS011;13201;51.148;13.738;2023-03-13T08:23:17;4.70;;;1.95;;
25249;SDS011;13201;51.148;13.738;2023-03-13T08:25:43;5.90;;;1.83;;
25249;SDS011;13201;51.148;13.738;2023-03-13T08:28:08;7.63;;;1.92;;
25249;SDS011;13201;51.148;13.738;2023-03-13T08:30:35;7.55;;;2.00;;
25249;SDS011;13201;51.148;13.738;2023-03-13T08:33:01;8.52;;;2.00;;
25249;SDS011;13201;51.148;13.738;2023-03-13T08:35:27;6.75;;;1.73;;
25249;SDS011;13201;51.148;13.738;2023-03-13T08:37:53;5.05;;;1.80;;
25249;SDS011;13201;51.148;13.738;2023-03-13T08:40:19;6.00;;;1.77;;
25249;SDS011;13201;51.148;13.738;2023-03-13T08:42:44;7.40;;;1.63;;
25249;SDS011;13201;51.148;13.738;2023-03-13T08:45:10;6.55;;;1.83;;
25249;SDS011;13201;51.148;13.738;2023-03-13T08:47:36;5.22;;;1.52;;
25249;SDS011;13201;51.148;13.738;2023-03-13T08:50:02;4.40;;;1.90;;
25249;SDS011;13201;51.148;13.738;2023-03-13T08:52:28;6.67;;;2.60;;
25249;SDS011;13201;51.148;13.738;2023-03-13T08:54:54;6.07;;;1.70;;
25249;SDS011;13201;51.148;13.738;2023-03-13T08:57:19;4.43;;;1.40;;
25249;SDS011;13201;51.148;13.738;2023-03-13T08:59:45;4.07;;;1.67;;
25249;SDS011;13201;51.148;13.738;2023-03-13T09:02:11;6.47;;;2.03;;
25249;SDS011;13201;51.148;13.738;2023-03-13T09:04:42;4.80;;;1.58;;
25249;SDS011;13201;51.148;13.738;2023-03-13T09:07:08;4.47;;;1.50;;
25249;SDS011;13201;51.148;13.738;2023-03-13T09:09:34;4.55;;;1.65;;
25249;SDS011;13201;51.148;13.738;2023-03-13T09:11:59;3.38;;;1.40;;
25249;SDS011;13201;51.148;13.738;2023-03-13T09:14:25;3.75;;;1.45;;
25249;SDS011;13201;51.148;13.738;2023-03-13T09:16:51;3.40;;;1.70;;
25249;SDS011;13201;51.148;13.738;2023-03-13T09:19:16;4.93;;;1.70;;
25249;SDS011;13201;51.148;13.738;2023-03-13T09:21:42;3.75;;;1.40;;
25249;SDS011;13201;51.148;13.738;2023-03-13T09:24:08;5.22;;;1.52;;
25249;SDS011;13201;51.148;13.738;2023-03-13T09:26:33;4.32;;;1.60;;
25249;SDS011;13201;51.148;13.738;2023-03-13T09:28:59;8.98;;;1.40;;
25249;SDS011;13201;51.148;13.738;2023-03-13T09:31:26;4.63;;;1.70;;
25249;SDS011;13201;51.148;13.738;2023-03-13T09:33:53;4.80;;;1.50;;
25249;SDS011;13201;51.148;13.738;2023-03-13T09:36:19;5.60;;;1.50;;
25249;SDS011;13201;51.148;13.738;2023-03-13T09:38:45;3.17;;;1.33;;
25249;SDS011;13201;51.148;13.738;2023-03-13T09:46:54;4.13;;;1.45;;
25249;SDS011;13201;51.148;13.738;2023-03-13T09:49:26;4.38;;;1.17;;
25249;SDS011;13201;51.148;13.738;2023-03-13T09:54:59;4.75;;;1.30;;
25249;SDS011;13201;51.148;13.738;2023-03-13T09:57:35;3.92;;;1.45;;
25249;SDS011;13201;51.148;13.738;2023-03-13T10:00:11;5.70;;;1.35;;
25249;SDS011;13201;51.148;13.738;2023-03-13T10:02:44;6.07;;;1.55;;
25249;SDS011;13201;51.148;13.738;2023-03-13T10:05:17;2.08;;;1.20;;
25249;SDS011;13201;51.148;13.738;2023-03-13T10:07:43;2.65;;;1.65;;
25249;SDS011;13201;51.148;13.738;2023-03-13T10:10:20;2.67;;;1.60;;
25249;SDS011;13201;51.148;13.738;2023-03-13T10:16:10;3.13;;;1.60;;
25249;SDS011;13201;51.148;13.738;2023-03-13T10:18:43;4.70;;;1.90;;
25249;SDS011;13201;51.148;13.738;2023-03-13T10:21:17;2.53;;;1.00;;
25249;SDS011;13201;51.148;13.738;2023-03-13T10:23:57;1.88;;;1.30;;
25249;SDS011;13201;51.148;13.738;2023-03-13T10:26:31;2.05;;;0.90;;
25249;SDS011;13201;51.148;13.738;2023-03-13T10:29:04;2.13;;;1.00;;
25249;SDS011;13201;51.148;13.738;2023-03-13T10:31:46;5.00;;;1.35;;
25249;SDS011;13201;51.148;13.738;2023-03-13T10:34:23;2.10;;;1.00;;
25249;SDS011;13201;51.148;13.738;2023-03-13T10:36:53;2.97;;;1.73;;
25249;SDS011;13201;51.148;13.738;2023-03-13T10:39:28;2.78;;;1.17;;
25249;SDS011;13201;51.148;13.738;2023-03-13T10:41:58;3.95;;;1.00;;
25249;SDS011;13201;51.148;13.738;2023-03-13T10:44:41;3.80;;;1.00;;
25249;SDS011;13201;51.148;13.738;2023-03-13T10:47:08;3.08;;;1.10;;
25249;SDS011;13201;51.148;13.738;2023-03-13T10:49:46;1.25;;;0.82;;
25249;SDS011;13201;51.148;13.738;2023-03-13T10:55:11;0.70;;;0.52;;
25249;SDS011;13201;51.148;13.738;2023-03-13T10:57:41;1.33;;;0.60;;
25249;SDS011;13201;51.148;13.738;2023-03-13T11:00:29;1.83;;;0.70;;
25249;SDS011;13201;51.148;13.738;2023-03-13T11:02:58;0.65;;;0.52;;
25249;SDS011;13201;51.148;13.738;2023-03-13T11:05:29;1.27;;;0.57;;
25249;SDS011;13201;51.148;13.738;2023-03-13T11:07:58;0.82;;;0.60;;
25249;SDS011;13201;51.148;13.738;2023-03-13T11:13:34;1.13;;;0.68;;
25249;SDS011;13201;51.148;13.738;2023-03-13T11:16:06;1.20;;;0.52;;
25249;SDS011;13201;51.148;13.738;2023-03-13T11:18:57;2.22;;;0.60;;
25249;SDS011;13201;51.148;13.738;2023-03-13T11:21:40;1.38;;;0.52;;
25249;SDS011;13201;51.148;13.738;2023-03-13T11:24:31;1.45;;;0.60;;
25249;SDS011;13201;51.148;13.738;2023-03-13T11:27:15;3.08;;;1.02;;
25249;SDS011;13201;51.148;13.738;2023-03-13T11:32:54;2.30;;;0.60;;
25249;SDS011;13201;51.148;13.738;2023-03-13T11:38:33;2.28;;;0.65;;
25249;SDS011;13201;51.148;13.738;2023-03-13T12:00:39;3.33;;;0.63;;
25249;SDS011;13201;51.148;13.738;2023-03-13T12:03:25;1.00;;;0.50;;
25249;SDS011;13201;51.148;13.738;2023-03-13T12:05:56;0.73;;;0.70;;
25249;SDS011;13201;51.148;13.738;2023-03-13T12:08:25;1.95;;;0.60;;
25249;SDS011;13201;51.148;13.738;2023-03-13T12:13:45;1.88;;;0.75;;
25249;SDS011;13201;51.148;13.738;2023-03-13T12:16:20;0.43;;;0.40;;
25249;SDS011;13201;51.148;13.738;2023-03-13T12:18:51;1.65;;;0.55;;
25249;SDS011;13201;51.148;13.738;2023-03-13T12:21:20;1.10;;;0.50;;
25249;SDS011;13201;51.148;13.738;2023-03-13T12:26:46;2.70;;;0.70;;
25249;SDS011;13201;51.148;13.738;2023-03-13T12:32:11;1.60;;;0.68;;
25249;SDS011;13201;51.148;13.738;2023-03-13T12:45:21;0.30;;;0.30;;
25249;SDS011;13201;51.148;13.738;2023-03-13T13:01:48;1.00;;;0.60;;
25249;SDS011;13201;51.148;13.738;2023-03-13T13:04:27;0.88;;;0.60;;
25249;SDS011;13201;51.148;13.738;2023-03-13T13:09:34;1.67;;;0.75;;
25249;SDS011;13201;51.148;13.738;2023-03-13T13:12:17;0.95;;;0.43;;
25249;SDS011;13201;51.148;13.738;2023-03-13T13:25:43;2.10;;;0.90;;
25249;SDS011;13201;51.148;13.738;2023-03-13T13:38:33;1.35;;;0.70;;
25249;SDS011;13201;51.148;13.738;2023-03-13T13:46:44;0.93;;;0.60;;
25249;SDS011;13201;51.148;13.738;2023-03-13T13:49:14;0.90;;;0.73;;
25249;SDS011;13201;51.148;13.738;2023-03-13T14:04:33;1.60;;;0.63;;
25249;SDS011;13201;51.148;13.738;2023-03-13T14:07:03;2.80;;;0.70;;
25249;SDS011;13201;51.148;13.738;2023-03-13T14:09:32;1.30;;;0.60;;
25249;SDS011;13201;51.148;13.738;2023-03-13T14:15:08;0.68;;;0.60;;
25249;SDS011;13201;51.148;13.738;2023-03-13T14:17:40;1.45;;;0.60;;
25249;SDS011;13201;51.148;13.738;2023-03-13T14:22:55;4.53;;;0.85;;
25249;SDS011;13201;51.148;13.738;2023-03-13T14:25:23;1.30;;;0.70;;
25249;SDS011;13201;51.148;13.738;2023-03-13T14:27:50;0.70;;;0.65;;
25249;SDS011;13201;51.148;13.738;2023-03-13T14:30:17;1.92;;;0.88;;
25249;SDS011;13201;51.148;13.738;2023-03-13T14:32:44;1.85;;;0.90;;
25249;SDS011;13201;51.148;13.738;2023-03-13T14:35:12;1.45;;;0.80;;
25249;SDS011;13201;51.148;13.738;2023-03-13T14:37:41;0.80;;;0.70;;
25249;SDS011;13201;51.148;13.738;2023-03-13T14:40:30;0.80;;;0.63;;
25249;SDS011;13201;51.148;13.738;2023-03-13T14:43:00;0.77;;;0.60;;
25249;SDS011;13201;51.148;13.738;2023-03-13T14:48:19;1.38;;;0.85;;
25249;SDS011;13201;51.148;13.738;2023-03-13T14:50:52;3.58;;;0.98;;
25249;SDS011;13201;51.148;13.738;2023-03-13T14:53:26;1.55;;;0.80;;
25249;SDS011;13201;51.148;13.738;2023-03-13T14:58:43;2.17;;;0.70;;
25249;SDS011;13201;51.148;13.738;2023-03-13T15:01:19;2.20;;;0.60;;
25249;SDS011;13201;51.148;13.738;2023-03-13T15:03:50;1.00;;;0.90;;
25249;SDS011;13201;51.148;13.738;2023-03-13T15:06:20;0.73;;;0.70;;
25249;SDS011;13201;51.148;13.738;2023-03-13T15:09:13;1.45;;;0.90;;
25249;SDS011;13201;51.148;13.738;2023-03-13T15:11:59;1.58;;;0.95;;
25249;SDS011;13201;51.148;13.738;2023-03-13T15:14:41;2.33;;;1.20;;
25249;SDS011;13201;51.148;13.738;2023-03-13T15:19:52;1.70;;;1.15;;
25249;SDS011;13201;51.148;13.738;2023-03-13T15:22:21;1.38;;;1.00;;
25249;SDS011;13201;51.148;13.738;2023-03-13T15:24:52;1.23;;;0.90;;
25249;SDS011;13201;51.148;13.738;2023-03-13T15:27:19;2.65;;;1.00;;
25249;SDS011;13201;51.148;13.738;2023-03-13T15:29:46;3.05;;;1.00;;
25249;SDS011;13201;51.148;13.738;2023-03-13T15:32:13;1.30;;;0.60;;
25249;SDS011;13201;51.148;13.738;2023-03-13T15:34:48;1.65;;;1.05;;
25249;SDS011;13201;51.148;13.738;2023-03-13T15:37:13;1.85;;;0.95;;
25249;SDS011;13201;51.148;13.738;2023-03-13T15:39:40;0.98;;;0.77;;
25249;SDS011;13201;51.148;13.738;2023-03-13T15:42:06;0.83;;;0.60;;
25249;SDS011;13201;51.148;13.738;2023-03-13T15:44:31;2.13;;;1.10;;
25249;SDS011;13201;51.148;13.738;2023-03-13T15:46:57;2.20;;;1.20;;
25249;SDS011;13201;51.148;13.738;2023-03-13T15:49:23;3.78;;;1.10;;
25249;SDS011;13201;51.148;13.738;2023-03-13T15:51:48;3.55;;;1.00;;
25249;SDS011;13201;51.148;13.738;2023-03-13T15:54:14;1.02;;;0.70;;
25249;SDS011;13201;51.148;13.738;2023-03-13T15:56:40;0.88;;;0.57;;
25249;SDS011;13201;51.148;13.738;2023-03-13T15:59:09;2.47;;;0.82;;
25249;SDS011;13201;51.148;13.738;2023-03-13T16:01:36;0.93;;;0.70;;
25249;SDS011;13201;51.148;13.738;2023-03-13T16:04:03;1.80;;;0.80;;
25249;SDS011;13201;51.148;13.738;2023-03-13T16:06:29;2.13;;;1.00;;
25249;SDS011;13201;51.148;13.738;2023-03-13T16:08:58;2.00;;;0.80;;
25249;SDS011;13201;51.148;13.738;2023-03-13T16:11:25;2.08;;;1.15;;
25249;SDS011;13201;51.148;13.738;2023-03-13T16:13:51;1.40;;;0.90;;
25249;SDS011;13201;51.148;13.738;2023-03-13T16:16:27;2.03;;;0.90;;
25249;SDS011;13201;51.148;13.738;2023-03-13T16:18:55;1.48;;;0.80;;
25249;SDS011;13201;51.148;13.738;2023-03-13T16:21:23;1.40;;;0.82;;
25249;SDS011;13201;51.148;13.738;2023-03-13T16:23:54;1.75;;;0.60;;
25249;SDS011;13201;51.148;13.738;2023-03-13T16:26:24;1.10;;;0.77;;
25249;SDS011;13201;51.148;13.738;2023-03-13T16:28:52;1.17;;;0.65;;
25249;SDS011;13201;51.148;13.738;2023-03-13T16:31:22;2.00;;;0.90;;
25249;SDS011;13201;51.148;13.738;2023-03-13T16:33:52;0.90;;;0.80;;
25249;SDS011;13201;51.148;13.738;2023-03-13T16:36:20;1.35;;;0.60;;
25249;SDS011;13201;51.148;13.738;2023-03-13T16:38:48;2.03;;;0.80;;
25249;SDS011;13201;51.148;13.738;2023-03-13T16:41:15;1.15;;;0.70;;
25249;SDS011;13201;51.148;13.738;2023-03-13T16:43:43;1.70;;;0.73;;
25249;SDS011;13201;51.148;13.738;2023-03-13T16:46:20;1.00;;;0.70;;
25249;SDS011;13201;51.148;13.738;2023-03-13T16:48:48;1.00;;;0.85;;
25249;SDS011;13201;51.148;13.738;2023-03-13T16:53:45;2.30;;;0.70;;
25249;SDS011;13201;51.148;13.738;2023-03-13T16:58:58;2.78;;;0.80;;
25249;SDS011;13201;51.148;13.738;2023-03-13T17:01:25;1.17;;;0.98;;
25249;SDS011;13201;51.148;13.738;2023-03-13T17:03:54;1.00;;;0.85;;
25249;SDS011;13201;51.148;13.738;2023-03-13T17:06:22;2.50;;;0.90;;
25249;SDS011;13201;51.148;13.738;2023-03-13T17:08:50;2.10;;;1.00;;
25249;SDS011;13201;51.148;13.738;2023-03-13T17:11:16;1.20;;;0.90;;
25249;SDS011;13201;51.148;13.738;2023-03-13T17:13:44;1.67;;;1.00;;
25249;SDS011;13201;51.148;13.738;2023-03-13T17:16:15;2.03;;;0.80;;
25249;SDS011;13201;51.148;13.738;2023-03-13T17:18:46;3.63;;;0.90;;
25249;SDS011;13201;51.148;13.738;2023-03-13T17:21:18;1.20;;;0.90;;
25249;SDS011;13201;51.148;13.738;2023-03-13T17:23:45;1.38;;;0.82;;
25249;SDS011;13201;51.148;13.738;2023-03-13T17:26:15;2.08;;;1.10;;
25249;SDS011;13201;51.148;13.738;2023-03-13T17:28:52;2.80;;;0.77;;
25249;SDS011;13201;51.148;13.738;2023-03-13T17:31:19;2.38;;;1.02;;
25249;SDS011;13201;51.148;13.738;2023-03-13T17:33:46;3.08;;;1.10;;
25249;SDS011;13201;51.148;13.738;2023-03-13T17:38:40;1.85;;;1.15;;
25249;SDS011;13201;51.148;13.738;2023-03-13T17:41:08;1.75;;;1.00;;
25249;SDS011;13201;51.148;13.738;2023-03-13T17:43:38;1.45;;;1.00;;